sensor_id;sensor_type;location;lat;lon;timestamp;temperature;humidity
11087;DHT22;5597;47.588;9.642;2023-01-15T00:00:41;8.50;99.90
11087;DHT22;5597;47.588;9.642;2023-01-15T00:03:07;8.60;99.90
11087;DHT22;5597;47.588;9.642;2023-01-15T00:05:35;8.80;99.90
11087;DHT22;5597;47.588;9.642;2023-01-15T00:08:00;9.00;99.90
11087;DHT22;5597;47.588;9.642;2023-01-15T00:10:27;9.20;99.90
11087;DHT22;5597;47.588;9.642;2023-01-15T00:12:53;9.30;99.90
11087;DHT22;5597;47.588;9.642;2023-01-15T00:15:18;9.50;99.90
11087;DHT22;5597;47.588;9.642;2023-01-15T00:17:44;9.70;99.90
11087;DHT22;5597;47.588;9.642;2023-01-15T00:20:10;10.00;99.90
11087;DHT22;5597;47.588;9.642;2023-01-15T00:22:36;10.10;99.90
11087;DHT22;5597;47.588;9.642;2023-01-15T00:25:01;10.20;99.90
11087;DHT22;5597;47.588;9.642;2023-01-15T00:28:03;10.20;99.90
11087;DHT22;5597;47.588;9.642;2023-01-15T00:30:28;10.10;99.90
11087;DHT22;5597;47.588;9.642;2023-01-15T00:32:54;10.10;99.90
11087;DHT22;5597;47.588;9.642;2023-01-15T00:35:21;10.10;99.90
11087;DHT22;5597;47.588;9.642;2023-01-15T00:37:47;10.00;99.90
11087;DHT22;5597;47.588;9.642;2023-01-15T00:40:14;9.90;99.90
11087;DHT22;5597;47.588;9.642;2023-01-15T00:42:40;9.80;99.90
11087;DHT22;5597;47.588;9.642;2023-01-15T00:45:07;9.60;99.90
11087;DHT22;5597;47.588;9.642;2023-01-15T00:47:41;9.60;99.90
11087;DHT22;5597;47.588;9.642;2023-01-15T00:50:13;9.40;99.90
11087;DHT22;5597;47.588;9.642;2023-01-15T00:52:39;9.30;99.90
11087;DHT22;5597;47.588;9.642;2023-01-15T00:55:06;9.20;99.90
11087;DHT22;5597;47.588;9.642;2023-01-15T00:57:32;9.20;99.90
11087;DHT22;5597;47.588;9.642;2023-01-15T00:59:58;9.00;99.90
11087;DHT22;5597;47.588;9.642;2023-01-15T01:02:23;9.00;99.90
11087;DHT22;5597;47.588;9.642;2023-01-15T01:04:49;8.90;99.90
11087;DHT22;5597;47.588;9.642;2023-01-15T01:07:15;8.80;99.90
11087;DHT22;5597;47.588;9.642;2023-01-15T01:09:41;8.70;99.90
11087;DHT22;5597;47.588;9.642;2023-01-15T01:12:07;8.70;99.90
11087;DHT22;5597;47.588;9.642;2023-01-15T01:14:32;8.60;99.90
11087;DHT22;5597;47.588;9.642;2023-01-15T01:16:58;8.50;99.90
11087;DHT22;5597;47.588;9.642;2023-01-15T01:19:25;8.50;99.90
11087;DHT22;5597;47.588;9.642;2023-01-15T01:21:51;8.40;99.90
11087;DHT22;5597;47.588;9.642;2023-01-15T01:24:22;8.40;99.90
11087;DHT22;5597;47.588;9.642;2023-01-15T01:26:48;8.30;99.90
11087;DHT22;5597;47.588;9.642;2023-01-15T01:29:16;8.30;99.90
11087;DHT22;5597;47.588;9.642;2023-01-15T01:31:42;8.30;99.90
11087;DHT22;5597;47.588;9.642;2023-01-15T01:34:10;8.20;99.90
11087;DHT22;5597;47.588;9.642;2023-01-15T01:36:37;8.20;99.90
11087;DHT22;5597;47.588;9.642;2023-01-15T01:39:08;8.20;99.90
11087;DHT22;5597;47.588;9.642;2023-01-15T01:41:36;8.10;99.90
11087;DHT22;5597;47.588;9.642;2023-01-15T01:46:56;8.10;99.90
11087;DHT22;5597;47.588;9.642;2023-01-15T01:49:22;8.00;99.90
11087;DHT22;5597;47.588;9.642;2023-01-15T01:52:08;8.00;99.90
11087;DHT22;5597;47.588;9.642;2023-01-15T01:54:37;8.00;99.90
11087;DHT22;5597;47.588;9.642;2023-01-15T01:57:03;8.00;99.90
11087;DHT22;5597;47.588;9.642;2023-01-15T01:59:31;7.90;99.90
11087;DHT22;5597;47.588;9.642;2023-01-15T02:01:57;8.00;99.90
11087;DHT22;5597;47.588;9.642;2023-01-15T02:04:25;8.00;99.90
11087;DHT22;5597;47.588;9.642;2023-01-15T02:06:52;8.00;99.90
11087;DHT22;5597;47.588;9.642;2023-01-15T02:09:18;7.90;99.90
11087;DHT22;5597;47.588;9.642;2023-01-15T02:11:44;7.90;99.90
11087;DHT22;5597;47.588;9.642;2023-01-15T02:14:15;7.90;99.90
11087;DHT22;5597;47.588;9.642;2023-01-15T02:16:49;7.90;99.90
11087;DHT22;5597;47.588;9.642;2023-01-15T02:22:35;7.90;99.90
11087;DHT22;5597;47.588;9.642;2023-01-15T02:28:18;7.90;99.90
11087;DHT22;5597;47.588;9.642;2023-01-15T02:30:44;7.90;99.90
11087;DHT22;5597;47.588;9.642;2023-01-15T02:33:20;7.90;99.90
11087;DHT22;5597;47.588;9.642;2023-01-15T02:35:55;7.90;99.90
11087;DHT22;5597;47.588;9.642;2023-01-15T02:38:45;7.80;99.90
11087;DHT22;5597;47.588;9.642;2023-01-15T02:41:13;7.80;99.90
11087;DHT22;5597;47.588;9.642;2023-01-15T02:43:49;7.80;99.90
11087;DHT22;5597;47.588;9.642;2023-01-15T02:46:16;7.80;99.90
11087;DHT22;5597;47.588;9.642;2023-01-15T02:48:45;7.80;99.90
11087;DHT22;5597;47.588;9.642;2023-01-15T02:51:15;7.80;99.90
11087;DHT22;5597;47.588;9.642;2023-01-15T02:53:44;7.70;99.90
11087;DHT22;5597;47.588;9.642;2023-01-15T02:56:14;7.70;99.90
11087;DHT22;5597;47.588;9.642;2023-01-15T02:58:43;7.70;99.90
11087;DHT22;5597;47.588;9.642;2023-01-15T03:01:27;7.70;99.90
11087;DHT22;5597;47.588;9.642;2023-01-15T03:04:30;7.60;99.90
11087;DHT22;5597;47.588;9.642;2023-01-15T03:10:00;7.60;99.90
11087;DHT22;5597;47.588;9.642;2023-01-15T03:12:44;7.60;99.90
11087;DHT22;5597;47.588;9.642;2023-01-15T03:27:02;7.50;99.90
11087;DHT22;5597;47.588;9.642;2023-01-15T03:29:31;7.40;99.90
11087;DHT22;5597;47.588;9.642;2023-01-15T03:31:59;7.40;99.90
11087;DHT22;5597;47.588;9.642;2023-01-15T03:34:28;7.40;99.90
11087;DHT22;5597;47.588;9.642;2023-01-15T03:36:55;7.40;99.90
11087;DHT22;5597;47.588;9.642;2023-01-15T03:39:21;7.40;99.90
11087;DHT22;5597;47.588;9.642;2023-01-15T03:41:54;7.40;99.90
11087;DHT22;5597;47.588;9.642;2023-01-15T03:44:42;7.40;99.90
11087;DHT22;5597;47.588;9.642;2023-01-15T03:47:19;7.40;99.90
11087;DHT22;5597;47.588;9.642;2023-01-15T03:52:47;7.40;99.90
11087;DHT22;5597;47.588;9.642;2023-01-15T03:55:19;7.40;99.90
11087;DHT22;5597;47.588;9.642;2023-01-15T03:58:16;7.40;99.90
11087;DHT22;5597;47.588;9.642;2023-01-15T04:00:54;7.50;99.90
11087;DHT22;5597;47.588;9.642;2023-01-15T04:03:22;7.50;99.90
11087;DHT22;5597;47.588;9.642;2023-01-15T04:05:50;7.60;99.90
11087;DHT22;5597;47.588;9.642;2023-01-15T04:08:17;7.60;99.90
11087;DHT22;5597;47.588;9.642;2023-01-15T04:10:55;7.60;99.90
11087;DHT22;5597;47.588;9.642;2023-01-15T04:13:21;7.60;99.90
11087;DHT22;5597;47.588;9.642;2023-01-15T04:15:47;7.70;99.90
11087;DHT22;5597;47.588;9.642;2023-01-15T04:18:12;7.70;99.90
11087;DHT22;5597;47.588;9.642;2023-01-15T04:20:38;7.70;99.90
11087;DHT22;5597;47.588;9.642;2023-01-15T04:23:04;7.70;99.90
11087;DHT22;5597;47.588;9.642;2023-01-15T04:25:29;7.70;99.90
11087;DHT22;5597;47.588;9.642;2023-01-15T04:27:55;7.70;99.90
11087;DHT22;5597;47.588;9.642;2023-01-15T04:30:21;7.70;99.90
11087;DHT22;5597;47.588;9.642;2023-01-15T04:32:50;7.70;99.90
11087;DHT22;5597;47.588;9.642;2023-01-15T04:35:17;7.70;99.90
11087;DHT22;5597;47.588;9.642;2023-01-15T04:37:44;7.60;99.90
11087;DHT22;5597;47.588;9.642;2023-01-15T04:40:10;7.60;99.90
11087;DHT22;5597;47.588;9.642;2023-01-15T04:42:56;7.60;99.90
11087;DHT22;5597;47.588;9.642;2023-01-15T04:45:42;7.50;99.90
11087;DHT22;5597;47.588;9.642;2023-01-15T04:48:08;7.50;99.90
11087;DHT22;5597;47.588;9.642;2023-01-15T04:50:33;7.40;99.90
11087;DHT22;5597;47.588;9.642;2023-01-15T04:52:59;7.40;99.90
11087;DHT22;5597;47.588;9.642;2023-01-15T04:55:24;7.40;99.90
11087;DHT22;5597;47.588;9.642;2023-01-15T04:57:50;7.40;99.90
11087;DHT22;5597;47.588;9.642;2023-01-15T05:00:16;7.30;99.90
11087;DHT22;5597;47.588;9.642;2023-01-15T05:02:42;7.30;99.90
11087;DHT22;5597;47.588;9.642;2023-01-15T05:05:07;7.20;99.90
11087;DHT22;5597;47.588;9.642;2023-01-15T05:07:33;7.20;99.90
11087;DHT22;5597;47.588;9.642;2023-01-15T05:09:59;7.20;99.90
11087;DHT22;5597;47.588;9.642;2023-01-15T05:12:24;7.20;99.90
11087;DHT22;5597;47.588;9.642;2023-01-15T05:14:50;7.20;99.90
11087;DHT22;5597;47.588;9.642;2023-01-15T05:17:16;7.20;99.90
11087;DHT22;5597;47.588;9.642;2023-01-15T05:19:42;7.20;99.90
11087;DHT22;5597;47.588;9.642;2023-01-15T05:22:07;7.10;99.90
11087;DHT22;5597;47.588;9.642;2023-01-15T05:24:34;7.10;99.90
11087;DHT22;5597;47.588;9.642;2023-01-15T05:26:59;7.10;99.90
11087;DHT22;5597;47.588;9.642;2023-01-15T05:29:25;7.10;99.90
11087;DHT22;5597;47.588;9.642;2023-01-15T05:31:51;7.10;99.90
11087;DHT22;5597;47.588;9.642;2023-01-15T05:34:16;7.10;99.90
11087;DHT22;5597;47.588;9.642;2023-01-15T05:36:42;7.10;99.90
11087;DHT22;5597;47.588;9.642;2023-01-15T05:39:08;7.00;99.90
11087;DHT22;5597;47.588;9.642;2023-01-15T05:41:33;7.10;99.90
11087;DHT22;5597;47.588;9.642;2023-01-15T05:44:34;7.10;99.90
11087;DHT22;5597;47.588;9.642;2023-01-15T05:47:01;7.00;99.90
11087;DHT22;5597;47.588;9.642;2023-01-15T05:49:28;7.00;99.90
11087;DHT22;5597;47.588;9.642;2023-01-15T05:51:56;7.00;99.90
11087;DHT22;5597;47.588;9.642;2023-01-15T05:54:24;7.00;99.90
11087;DHT22;5597;47.588;9.642;2023-01-15T05:56:50;7.00;99.90
11087;DHT22;5597;47.588;9.642;2023-01-15T05:59:18;7.00;99.90
11087;DHT22;5597;47.588;9.642;2023-01-15T06:01:44;7.00;99.90
11087;DHT22;5597;47.588;9.642;2023-01-15T06:04:12;6.90;99.90
11087;DHT22;5597;47.588;9.642;2023-01-15T06:06:39;6.90;99.90
11087;DHT22;5597;47.588;9.642;2023-01-15T06:09:05;6.90;99.90
11087;DHT22;5597;47.588;9.642;2023-01-15T06:11:31;7.00;99.90
11087;DHT22;5597;47.588;9.642;2023-01-15T06:13:57;6.90;99.90
11087;DHT22;5597;47.588;9.642;2023-01-15T06:16:22;6.90;99.90
11087;DHT22;5597;47.588;9.642;2023-01-15T06:18:48;6.90;99.90
11087;DHT22;5597;47.588;9.642;2023-01-15T06:21:14;6.90;99.90
11087;DHT22;5597;47.588;9.642;2023-01-15T06:23:40;6.90;99.90
11087;DHT22;5597;47.588;9.642;2023-01-15T06:26:15;6.90;99.90
11087;DHT22;5597;47.588;9.642;2023-01-15T06:28:45;6.90;99.90
11087;DHT22;5597;47.588;9.642;2023-01-15T06:31:14;6.90;99.90
11087;DHT22;5597;47.588;9.642;2023-01-15T06:33:40;6.90;99.90
11087;DHT22;5597;47.588;9.642;2023-01-15T06:36:09;6.90;99.90
11087;DHT22;5597;47.588;9.642;2023-01-15T06:38:35;6.80;99.90
11087;DHT22;5597;47.588;9.642;2023-01-15T06:41:03;6.80;99.90
11087;DHT22;5597;47.588;9.642;2023-01-15T06:43:29;6.90;99.90
11087;DHT22;5597;47.588;9.642;2023-01-15T06:46:16;6.80;99.90
11087;DHT22;5597;47.588;9.642;2023-01-15T06:49:00;6.80;99.90
11087;DHT22;5597;47.588;9.642;2023-01-15T06:51:26;6.80;99.90
11087;DHT22;5597;47.588;9.642;2023-01-15T06:53:51;6.80;99.90
11087;DHT22;5597;47.588;9.642;2023-01-15T06:56:17;6.80;99.90
11087;DHT22;5597;47.588;9.642;2023-01-15T06:58:43;6.80;99.90
11087;DHT22;5597;47.588;9.642;2023-01-15T07:01:15;6.70;99.90
11087;DHT22;5597;47.588;9.642;2023-01-15T07:03:40;6.80;99.90
11087;DHT22;5597;47.588;9.642;2023-01-15T07:06:08;6.70;99.90
11087;DHT22;5597;47.588;9.642;2023-01-15T07:08:35;6.70;99.90
11087;DHT22;5597;47.588;9.642;2023-01-15T07:11:02;6.70;99.90
11087;DHT22;5597;47.588;9.642;2023-01-15T07:13:28;6.70;99.90
11087;DHT22;5597;47.588;9.642;2023-01-15T07:15:54;6.70;99.90
11087;DHT22;5597;47.588;9.642;2023-01-15T07:18:19;6.70;99.90
11087;DHT22;5597;47.588;9.642;2023-01-15T07:20:45;6.70;99.90
11087;DHT22;5597;47.588;9.642;2023-01-15T07:23:10;6.70;99.90
11087;DHT22;5597;47.588;9.642;2023-01-15T07:25:36;6.80;99.90
11087;DHT22;5597;47.588;9.642;2023-01-15T07:28:03;6.80;99.90
11087;DHT22;5597;47.588;9.642;2023-01-15T07:30:29;6.80;99.90
11087;DHT22;5597;47.588;9.642;2023-01-15T07:32:55;6.80;99.90
11087;DHT22;5597;47.588;9.642;2023-01-15T07:35:21;6.90;99.90
11087;DHT22;5597;47.588;9.642;2023-01-15T07:37:50;6.90;99.90
11087;DHT22;5597;47.588;9.642;2023-01-15T07:40:17;7.10;99.90
11087;DHT22;5597;47.588;9.642;2023-01-15T07:42:42;7.20;99.90
11087;DHT22;5597;47.588;9.642;2023-01-15T07:45:26;7.30;99.90
11087;DHT22;5597;47.588;9.642;2023-01-15T07:48:10;7.60;99.90
11087;DHT22;5597;47.588;9.642;2023-01-15T07:50:54;7.80;99.90
11087;DHT22;5597;47.588;9.642;2023-01-15T07:53:20;7.90;99.90
11087;DHT22;5597;47.588;9.642;2023-01-15T07:55:45;8.00;99.90
11087;DHT22;5597;47.588;9.642;2023-01-15T07:58:11;8.10;99.90
11087;DHT22;5597;47.588;9.642;2023-01-15T08:00:37;8.30;99.90
11087;DHT22;5597;47.588;9.642;2023-01-15T08:03:02;8.40;99.90
11087;DHT22;5597;47.588;9.642;2023-01-15T08:05:28;8.40;99.90
11087;DHT22;5597;47.588;9.642;2023-01-15T08:07:53;8.40;99.90
11087;DHT22;5597;47.588;9.642;2023-01-15T08:10:19;8.40;99.90
11087;DHT22;5597;47.588;9.642;2023-01-15T08:12:45;8.40;99.90
11087;DHT22;5597;47.588;9.642;2023-01-15T08:15:36;8.40;99.90
11087;DHT22;5597;47.588;9.642;2023-01-15T08:18:02;8.30;99.90
11087;DHT22;5597;47.588;9.642;2023-01-15T08:20:29;8.30;99.90
11087;DHT22;5597;47.588;9.642;2023-01-15T08:22:54;8.30;99.90
11087;DHT22;5597;47.588;9.642;2023-01-15T08:25:22;8.40;99.90
11087;DHT22;5597;47.588;9.642;2023-01-15T08:27:49;8.40;99.90
11087;DHT22;5597;47.588;9.642;2023-01-15T08:30:22;8.50;99.90
11087;DHT22;5597;47.588;9.642;2023-01-15T08:32:48;8.50;99.90
11087;DHT22;5597;47.588;9.642;2023-01-15T08:35:13;8.60;99.90
11087;DHT22;5597;47.588;9.642;2023-01-15T08:37:40;8.70;99.90
11087;DHT22;5597;47.588;9.642;2023-01-15T08:40:07;8.70;99.90
11087;DHT22;5597;47.588;9.642;2023-01-15T08:42:35;8.80;99.90
11087;DHT22;5597;47.588;9.642;2023-01-15T08:45:01;8.90;99.90
11087;DHT22;5597;47.588;9.642;2023-01-15T08:47:27;8.90;99.90
11087;DHT22;5597;47.588;9.642;2023-01-15T08:49:52;9.00;99.90
11087;DHT22;5597;47.588;9.642;2023-01-15T08:52:19;9.00;99.90
11087;DHT22;5597;47.588;9.642;2023-01-15T08:54:44;9.10;99.90
11087;DHT22;5597;47.588;9.642;2023-01-15T08:57:10;9.10;99.90
11087;DHT22;5597;47.588;9.642;2023-01-15T08:59:37;9.10;99.90
11087;DHT22;5597;47.588;9.642;2023-01-15T09:02:03;9.20;99.90
11087;DHT22;5597;47.588;9.642;2023-01-15T09:04:29;9.30;99.90
11087;DHT22;5597;47.588;9.642;2023-01-15T09:06:54;9.40;99.90
11087;DHT22;5597;47.588;9.642;2023-01-15T09:09:20;9.60;99.90
11087;DHT22;5597;47.588;9.642;2023-01-15T09:11:45;9.70;99.90
11087;DHT22;5597;47.588;9.642;2023-01-15T09:14:13;9.70;99.90
11087;DHT22;5597;47.588;9.642;2023-01-15T09:16:39;9.70;99.90
11087;DHT22;5597;47.588;9.642;2023-01-15T09:19:06;9.70;99.90
11087;DHT22;5597;47.588;9.642;2023-01-15T09:21:32;9.70;99.90
11087;DHT22;5597;47.588;9.642;2023-01-15T09:23:58;9.70;99.90
11087;DHT22;5597;47.588;9.642;2023-01-15T09:26:38;9.60;99.90
11087;DHT22;5597;47.588;9.642;2023-01-15T09:29:05;9.60;99.90
11087;DHT22;5597;47.588;9.642;2023-01-15T09:31:32;9.60;99.90
11087;DHT22;5597;47.588;9.642;2023-01-15T09:33:57;9.60;99.90
11087;DHT22;5597;47.588;9.642;2023-01-15T09:36:31;9.60;99.90
11087;DHT22;5597;47.588;9.642;2023-01-15T09:38:58;9.50;99.90
11087;DHT22;5597;47.588;9.642;2023-01-15T09:41:28;9.40;99.90
11087;DHT22;5597;47.588;9.642;2023-01-15T09:47:14;9.30;99.90
11087;DHT22;5597;47.588;9.642;2023-01-15T09:55:19;9.10;99.90
11087;DHT22;5597;47.588;9.642;2023-01-15T09:57:49;9.00;99.90
11087;DHT22;5597;47.588;9.642;2023-01-15T10:00:21;9.00;99.90
11087;DHT22;5597;47.588;9.642;2023-01-15T10:03:03;8.90;99.90
11087;DHT22;5597;47.588;9.642;2023-01-15T10:05:37;8.80;99.90
11087;DHT22;5597;47.588;9.642;2023-01-15T10:08:10;8.70;99.90
11087;DHT22;5597;47.588;9.642;2023-01-15T10:10:49;8.60;99.90
11087;DHT22;5597;47.588;9.642;2023-01-15T10:13:34;8.60;99.90
11087;DHT22;5597;47.588;9.642;2023-01-15T10:16:02;8.50;99.90
11087;DHT22;5597;47.588;9.642;2023-01-15T10:18:28;8.40;99.90
11087;DHT22;5597;47.588;9.642;2023-01-15T10:24:17;8.30;99.90
11087;DHT22;5597;47.588;9.642;2023-01-15T10:26:58;8.30;99.90
11087;DHT22;5597;47.588;9.642;2023-01-15T10:46:01;7.70;99.90
11087;DHT22;5597;47.588;9.642;2023-01-15T10:51:02;7.50;99.90
11087;DHT22;5597;47.588;9.642;2023-01-15T10:56:42;7.40;99.90
11087;DHT22;5597;47.588;9.642;2023-01-15T11:01:39;7.30;99.90
11087;DHT22;5597;47.588;9.642;2023-01-15T11:04:08;7.20;99.90
11087;DHT22;5597;47.588;9.642;2023-01-15T11:06:34;7.10;99.90
11087;DHT22;5597;47.588;9.642;2023-01-15T11:09:00;7.10;99.90
11087;DHT22;5597;47.588;9.642;2023-01-15T11:14:10;7.00;99.90
11087;DHT22;5597;47.588;9.642;2023-01-15T11:16:54;6.90;99.90
11087;DHT22;5597;47.588;9.642;2023-01-15T11:19:36;6.80;99.90
11087;DHT22;5597;47.588;9.642;2023-01-15T11:24:36;6.70;99.90
11087;DHT22;5597;47.588;9.642;2023-01-15T11:27:04;6.60;99.90
11087;DHT22;5597;47.588;9.642;2023-01-15T11:29:34;6.50;99.90
11087;DHT22;5597;47.588;9.642;2023-01-15T11:32:01;6.40;99.90
11087;DHT22;5597;47.588;9.642;2023-01-15T11:34:27;6.40;99.90
11087;DHT22;5597;47.588;9.642;2023-01-15T11:37:03;6.30;99.90
11087;DHT22;5597;47.588;9.642;2023-01-15T11:39:29;6.30;99.90
11087;DHT22;5597;47.588;9.642;2023-01-15T11:42:03;6.20;99.90
11087;DHT22;5597;47.588;9.642;2023-01-15T11:44:56;6.30;99.90
11087;DHT22;5597;47.588;9.642;2023-01-15T11:47:51;6.20;99.90
11087;DHT22;5597;47.588;9.642;2023-01-15T11:50:45;6.10;99.90
11087;DHT22;5597;47.588;9.642;2023-01-15T11:53:20;6.00;99.90
11087;DHT22;5597;47.588;9.642;2023-01-15T11:56:07;6.00;99.90
11087;DHT22;5597;47.588;9.642;2023-01-15T11:58:57;6.00;99.90
11087;DHT22;5597;47.588;9.642;2023-01-15T12:03:58;5.80;99.90
11087;DHT22;5597;47.588;9.642;2023-01-15T12:06:24;5.70;99.90
11087;DHT22;5597;47.588;9.642;2023-01-15T12:20:19;5.50;99.90
11087;DHT22;5597;47.588;9.642;2023-01-15T12:25:55;5.40;99.90
11087;DHT22;5597;47.588;9.642;2023-01-15T12:28:28;5.40;99.90
11087;DHT22;5597;47.588;9.642;2023-01-15T12:38:53;5.30;99.90
11087;DHT22;5597;47.588;9.642;2023-01-15T12:41:35;5.30;99.90
11087;DHT22;5597;47.588;9.642;2023-01-15T12:44:30;5.20;99.90
11087;DHT22;5597;47.588;9.642;2023-01-15T12:47:24;5.20;99.90
11087;DHT22;5597;47.588;9.642;2023-01-15T12:50:20;5.10;99.90
11087;DHT22;5597;47.588;9.642;2023-01-15T12:52:52;5.10;99.90
11087;DHT22;5597;47.588;9.642;2023-01-15T12:55:30;5.00;99.90
11087;DHT22;5597;47.588;9.642;2023-01-15T12:58:04;5.00;99.90
11087;DHT22;5597;47.588;9.642;2023-01-15T13:00:42;4.90;99.90
11087;DHT22;5597;47.588;9.642;2023-01-15T13:06:00;4.90;99.90
11087;DHT22;5597;47.588;9.642;2023-01-15T13:08:32;4.80;99.90
11087;DHT22;5597;47.588;9.642;2023-01-15T13:10:59;4.80;99.90
11087;DHT22;5597;47.588;9.642;2023-01-15T13:13:31;4.80;99.90
11087;DHT22;5597;47.588;9.642;2023-01-15T13:16:19;4.80;99.90
11087;DHT22;5597;47.588;9.642;2023-01-15T13:21:28;4.70;99.90
11087;DHT22;5597;47.588;9.642;2023-01-15T13:29:57;4.70;99.90
11087;DHT22;5597;47.588;9.642;2023-01-15T13:32:49;4.70;99.90
11087;DHT22;5597;47.588;9.642;2023-01-15T13:35:55;4.60;99.90
11087;DHT22;5597;47.588;9.642;2023-01-15T13:38:26;4.60;99.90
11087;DHT22;5597;47.588;9.642;2023-01-15T13:40:54;4.60;99.90
11087;DHT22;5597;47.588;9.642;2023-01-15T13:43:33;4.60;99.90
11087;DHT22;5597;47.588;9.642;2023-01-15T13:46:03;4.60;99.90
11087;DHT22;5597;47.588;9.642;2023-01-15T13:48:30;4.50;99.90
11087;DHT22;5597;47.588;9.642;2023-01-15T13:50:58;4.50;99.90
11087;DHT22;5597;47.588;9.642;2023-01-15T13:53:39;4.50;99.90
11087;DHT22;5597;47.588;9.642;2023-01-15T13:56:10;4.50;99.90
11087;DHT22;5597;47.588;9.642;2023-01-15T13:58:57;4.50;99.90
11087;DHT22;5597;47.588;9.642;2023-01-15T14:06:40;4.60;99.90
11087;DHT22;5597;47.588;9.642;2023-01-15T14:09:13;4.60;99.90
11087;DHT22;5597;47.588;9.642;2023-01-15T14:18:03;4.60;99.90
11087;DHT22;5597;47.588;9.642;2023-01-15T14:20:41;4.60;99.90
11087;DHT22;5597;47.588;9.642;2023-01-15T14:31:35;4.60;99.90
11087;DHT22;5597;47.588;9.642;2023-01-15T14:36:49;4.50;99.90
11087;DHT22;5597;47.588;9.642;2023-01-15T14:39:27;4.60;99.90
11087;DHT22;5597;47.588;9.642;2023-01-15T14:42:39;4.60;99.90
11087;DHT22;5597;47.588;9.642;2023-01-15T14:45:05;4.60;99.90
11087;DHT22;5597;47.588;9.642;2023-01-15T14:47:36;4.60;99.90
11087;DHT22;5597;47.588;9.642;2023-01-15T14:50:36;4.70;99.90
11087;DHT22;5597;47.588;9.642;2023-01-15T14:55:54;4.70;99.90
11087;DHT22;5597;47.588;9.642;2023-01-15T15:01:17;4.60;99.90
11087;DHT22;5597;47.588;9.642;2023-01-15T15:06:50;4.70;99.90
11087;DHT22;5597;47.588;9.642;2023-01-15T15:09:46;4.70;99.90
11087;DHT22;5597;47.588;9.642;2023-01-15T15:23:44;4.70;99.90
11087;DHT22;5597;47.588;9.642;2023-01-15T15:31:42;4.70;99.90
11087;DHT22;5597;47.588;9.642;2023-01-15T15:34:21;4.70;99.90
11087;DHT22;5597;47.588;9.642;2023-01-15T15:36:48;4.70;99.90
11087;DHT22;5597;47.588;9.642;2023-01-15T15:41:54;4.70;99.90
11087;DHT22;5597;47.588;9.642;2023-01-15T15:44:50;4.70;99.90
11087;DHT22;5597;47.588;9.642;2023-01-15T15:47:40;4.70;99.90
11087;DHT22;5597;47.588;9.642;2023-01-15T15:52:52;4.70;99.90
11087;DHT22;5597;47.588;9.642;2023-01-15T15:55:19;4.70;99.90
11087;DHT22;5597;47.588;9.642;2023-01-15T15:57:58;4.70;99.90
11087;DHT22;5597;47.588;9.642;2023-01-15T16:00:31;4.70;99.90
11087;DHT22;5597;47.588;9.642;2023-01-15T16:03:06;4.70;99.90
11087;DHT22;5597;47.588;9.642;2023-01-15T16:05:33;4.70;99.90
11087;DHT22;5597;47.588;9.642;2023-01-15T16:10:40;4.70;99.90
11087;DHT22;5597;47.588;9.642;2023-01-15T16:13:20;4.60;99.90
11087;DHT22;5597;47.588;9.642;2023-01-15T16:15:47;4.70;99.90
11087;DHT22;5597;47.588;9.642;2023-01-15T16:18:44;4.60;99.90
11087;DHT22;5597;47.588;9.642;2023-01-15T16:21:32;4.60;99.90
11087;DHT22;5597;47.588;9.642;2023-01-15T16:24:20;4.50;99.90
11087;DHT22;5597;47.588;9.642;2023-01-15T16:26:51;4.50;99.90
11087;DHT22;5597;47.588;9.642;2023-01-15T16:29:21;4.50;99.90
11087;DHT22;5597;47.588;9.642;2023-01-15T16:31:49;4.40;99.90
11087;DHT22;5597;47.588;9.642;2023-01-15T16:34:21;4.40;99.90
11087;DHT22;5597;47.588;9.642;2023-01-15T16:36:47;4.40;99.90
11087;DHT22;5597;47.588;9.642;2023-01-15T16:41:57;4.30;99.90
11087;DHT22;5597;47.588;9.642;2023-01-15T16:44:36;4.20;99.90
11087;DHT22;5597;47.588;9.642;2023-01-15T16:47:04;4.20;99.90
11087;DHT22;5597;47.588;9.642;2023-01-15T16:49:32;4.20;99.90
11087;DHT22;5597;47.588;9.642;2023-01-15T16:52:00;4.10;99.90
11087;DHT22;5597;47.588;9.642;2023-01-15T16:56:55;4.10;99.90
11087;DHT22;5597;47.588;9.642;2023-01-15T17:01:54;4.00;99.90
11087;DHT22;5597;47.588;9.642;2023-01-15T17:04:38;3.90;99.90
11087;DHT22;5597;47.588;9.642;2023-01-15T17:07:12;3.90;99.90
11087;DHT22;5597;47.588;9.642;2023-01-15T17:09:46;3.90;99.90
11087;DHT22;5597;47.588;9.642;2023-01-15T17:12:33;3.90;99.90
11087;DHT22;5597;47.588;9.642;2023-01-15T17:15:28;3.90;99.90
11087;DHT22;5597;47.588;9.642;2023-01-15T17:17:54;3.90;99.90
11087;DHT22;5597;47.588;9.642;2023-01-15T17:20:22;3.90;99.90
11087;DHT22;5597;47.588;9.642;2023-01-15T17:22:52;3.80;99.90
11087;DHT22;5597;47.588;9.642;2023-01-15T17:25:32;3.80;99.90
11087;DHT22;5597;47.588;9.642;2023-01-15T17:28:02;3.70;99.90
11087;DHT22;5597;47.588;9.642;2023-01-15T17:30:29;3.70;99.90
11087;DHT22;5597;47.588;9.642;2023-01-15T17:33:00;3.70;99.90
11087;DHT22;5597;47.588;9.642;2023-01-15T17:37:55;3.70;99.90
11087;DHT22;5597;47.588;9.642;2023-01-15T17:40:21;3.60;99.90
11087;DHT22;5597;47.588;9.642;2023-01-15T17:42:47;3.60;99.90
11087;DHT22;5597;47.588;9.642;2023-01-15T17:45:21;3.60;99.90
11087;DHT22;5597;47.588;9.642;2023-01-15T17:47:47;3.60;99.90
11087;DHT22;5597;47.588;9.642;2023-01-15T17:50:14;3.60;99.90
11087;DHT22;5597;47.588;9.642;2023-01-15T17:52:40;3.60;99.90
11087;DHT22;5597;47.588;9.642;2023-01-15T17:55:09;3.50;99.90
11087;DHT22;5597;47.588;9.642;2023-01-15T17:57:54;3.50;99.90
11087;DHT22;5597;47.588;9.642;2023-01-15T18:00:38;3.50;99.90
11087;DHT22;5597;47.588;9.642;2023-01-15T18:03:23;3.40;99.90
11087;DHT22;5597;47.588;9.642;2023-01-15T18:06:11;3.40;99.90
11087;DHT22;5597;47.588;9.642;2023-01-15T18:08:39;3.30;99.90
11087;DHT22;5597;47.588;9.642;2023-01-15T18:11:05;3.30;99.90
11087;DHT22;5597;47.588;9.642;2023-01-15T18:13:31;3.20;99.90
11087;DHT22;5597;47.588;9.642;2023-01-15T18:15:56;3.20;99.90
11087;DHT22;5597;47.588;9.642;2023-01-15T18:18:22;3.10;99.90
11087;DHT22;5597;47.588;9.642;2023-01-15T18:20:47;3.10;99.90
11087;DHT22;5597;47.588;9.642;2023-01-15T18:23:13;3.00;99.90
11087;DHT22;5597;47.588;9.642;2023-01-15T18:25:38;3.00;99.90
11087;DHT22;5597;47.588;9.642;2023-01-15T18:28:11;3.00;99.90
11087;DHT22;5597;47.588;9.642;2023-01-15T18:30:36;3.00;99.90
11087;DHT22;5597;47.588;9.642;2023-01-15T18:33:02;2.90;99.90
11087;DHT22;5597;47.588;9.642;2023-01-15T18:35:28;2.90;99.90
11087;DHT22;5597;47.588;9.642;2023-01-15T18:37:54;2.90;99.90
11087;DHT22;5597;47.588;9.642;2023-01-15T18:40:20;2.80;99.90
11087;DHT22;5597;47.588;9.642;2023-01-15T18:42:51;2.80;99.90
11087;DHT22;5597;47.588;9.642;2023-01-15T18:45:35;2.80;99.90
11087;DHT22;5597;47.588;9.642;2023-01-15T18:48:19;2.70;99.90
11087;DHT22;5597;47.588;9.642;2023-01-15T18:50:45;2.70;99.90
11087;DHT22;5597;47.588;9.642;2023-01-15T18:53:13;2.80;99.90
11087;DHT22;5597;47.588;9.642;2023-01-15T18:55:38;2.80;99.90
11087;DHT22;5597;47.588;9.642;2023-01-15T18:58:04;2.80;99.90
11087;DHT22;5597;47.588;9.642;2023-01-15T19:00:29;2.80;99.90
11087;DHT22;5597;47.588;9.642;2023-01-15T19:02:55;2.80;99.90
11087;DHT22;5597;47.588;9.642;2023-01-15T19:05:21;2.80;99.90
11087;DHT22;5597;47.588;9.642;2023-01-15T19:07:46;2.90;99.90
11087;DHT22;5597;47.588;9.642;2023-01-15T19:10:13;2.90;99.90
11087;DHT22;5597;47.588;9.642;2023-01-15T19:12:39;3.00;99.90
11087;DHT22;5597;47.588;9.642;2023-01-15T19:15:06;3.00;99.90
11087;DHT22;5597;47.588;9.642;2023-01-15T19:17:51;3.00;99.90